sensor_id;sensor_type;location;lat;lon;timestamp;pressure;altitude;pressure_sealevel;temperature;humidity
78845;BME280;68195;50.854;2.860;2024-03-23T00:53:42;101219.00;;;7.60;100.00
78845;BME280;68195;50.854;2.860;2024-03-23T00:56:08;101213.84;;;7.59;100.00
78845;BME280;68195;50.854;2.860;2024-03-23T00:58:35;101208.75;;;7.56;100.00
78845;BME280;68195;50.854;2.860;2024-03-23T01:01:01;101193.34;;;7.50;100.00
78845;BME280;68195;50.854;2.860;2024-03-23T01:03:29;101125.16;;;7.12;100.00
78845;BME280;68195;50.854;2.860;2024-03-23T01:06:02;101200.09;;;7.55;100.00
78845;BME280;68195;50.854;2.860;2024-03-23T01:08:30;101190.59;;;7.54;100.00
78845;BME280;68195;50.854;2.860;2024-03-23T01:10:59;101101.16;;;7.04;100.00
78845;BME280;68195;50.854;2.860;2024-03-23T01:13:28;101130.81;;;7.26;100.00
78845;BME280;68195;50.854;2.860;2024-03-23T01:15:54;101144.53;;;7.30;100.00
78845;BME280;68195;50.854;2.860;2024-03-23T01:18:21;101194.81;;;7.58;100.00
78845;BME280;68195;50.854;2.860;2024-03-23T01:20:49;101185.16;;;7.62;100.00
78845;BME280;68195;50.854;2.860;2024-03-23T01:23:17;101107.91;;;7.11;100.00
78845;BME280;68195;50.854;2.860;2024-03-23T01:25:51;101148.56;;;7.40;100.00
78845;BME280;68195;50.854;2.860;2024-03-23T01:28:20;101186.22;;;7.56;100.00
78845;BME280;68195;50.854;2.860;2024-03-23T01:30:46;101137.69;;;7.27;100.00
78845;BME280;68195;50.854;2.860;2024-03-23T01:33:14;101161.72;;;7.35;100.00
78845;BME280;68195;50.854;2.860;2024-03-23T01:35:39;101185.53;;;7.50;100.00
78845;BME280;68195;50.854;2.860;2024-03-23T01:38:04;101184.06;;;7.41;100.00
78845;BME280;68195;50.854;2.860;2024-03-23T01:40:34;101180.66;;;7.39;100.00
78845;BME280;68195;50.854;2.860;2024-03-23T01:45:30;101100.81;;;6.86;100.00
78845;BME280;68195;50.854;2.860;2024-03-23T01:47:59;101165.44;;;7.27;100.00
78845;BME280;68195;50.854;2.860;2024-03-23T01:50:25;101099.19;;;6.82;100.00
78845;BME280;68195;50.854;2.860;2024-03-23T01:52:55;101127.91;;;7.07;100.00
78845;BME280;68195;50.854;2.860;2024-03-23T01:55:22;101183.59;;;7.28;100.00
78845;BME280;68195;50.854;2.860;2024-03-23T01:57:50;101136.09;;;6.93;100.00
78845;BME280;68195;50.854;2.860;2024-03-23T02:00:18;101123.22;;;6.89;100.00
78845;BME280;68195;50.854;2.860;2024-03-23T02:02:48;101088.44;;;6.65;100.00
78845;BME280;68195;50.854;2.860;2024-03-23T02:05:18;101183.88;;;7.17;100.00
78845;BME280;68195;50.854;2.860;2024-03-23T02:07:46;101135.47;;;6.85;100.00
78845;BME280;68195;50.854;2.860;2024-03-23T02:10:11;101164.22;;;7.09;100.00
78845;BME280;68195;50.854;2.860;2024-03-23T02:12:40;101180.50;;;7.14;100.00
78845;BME280;68195;50.854;2.860;2024-03-23T02:15:08;101089.44;;;6.28;100.00
78845;BME280;68195;50.854;2.860;2024-03-23T02:17:34;101176.44;;;6.74;100.00
78845;BME280;68195;50.854;2.860;2024-03-23T02:20:04;101167.75;;;6.75;100.00
78845;BME280;68195;50.854;2.860;2024-03-23T02:22:41;101174.66;;;6.76;100.00
78845;BME280;68195;50.854;2.860;2024-03-23T02:25:14;101174.44;;;6.84;100.00
78845;BME280;68195;50.854;2.860;2024-03-23T02:27:41;101157.06;;;6.86;100.00
78845;BME280;68195;50.854;2.860;2024-03-23T02:30:07;101106.72;;;6.60;100.00
78845;BME280;68195;50.854;2.860;2024-03-23T02:32:32;101165.16;;;6.75;100.00
78845;BME280;68195;50.854;2.860;2024-03-23T02:34:58;101101.38;;;6.35;100.00
78845;BME280;68195;50.854;2.860;2024-03-23T02:37:23;101150.66;;;6.68;100.00
78845;BME280;68195;50.854;2.860;2024-03-23T02:39:51;101125.50;;;6.37;100.00
78845;BME280;68195;50.854;2.860;2024-03-23T02:42:16;101099.22;;;6.18;100.00
78845;BME280;68195;50.854;2.860;2024-03-23T02:44:45;101160.53;;;6.53;100.00
78845;BME280;68195;50.854;2.860;2024-03-23T02:47:10;101170.34;;;6.75;100.00
78845;BME280;68195;50.854;2.860;2024-03-23T02:49:36;101179.34;;;6.62;100.00
78845;BME280;68195;50.854;2.860;2024-03-23T02:52:01;101179.34;;;6.62;100.00
78845;BME280;68195;50.854;2.860;2024-03-23T02:54:27;101176.63;;;6.66;100.00
78845;BME280;68195;50.854;2.860;2024-03-23T02:56:54;101000.41;;;5.62;100.00
78845;BME280;68195;50.854;2.860;2024-03-23T02:59:22;101112.09;;;6.21;100.00
78845;BME280;68195;50.854;2.860;2024-03-23T03:01:52;101187.88;;;6.67;100.00
78845;BME280;68195;50.854;2.860;2024-03-23T03:04:18;101184.34;;;6.69;100.00
78845;BME280;68195;50.854;2.860;2024-03-23T03:06:46;101110.56;;;6.14;100.00
78845;BME280;68195;50.854;2.860;2024-03-23T03:09:14;101108.22;;;6.05;100.00
78845;BME280;68195;50.854;2.860;2024-03-23T03:11:40;101141.47;;;6.22;100.00
78845;BME280;68195;50.854;2.860;2024-03-23T03:14:05;101108.25;;;6.03;100.00
78845;BME280;68195;50.854;2.860;2024-03-23T03:16:33;101183.91;;;6.53;100.00
78845;BME280;68195;50.854;2.860;2024-03-23T03:19:00;101149.06;;;6.29;100.00
78845;BME280;68195;50.854;2.860;2024-03-23T03:21:26;101153.72;;;6.16;100.00
78845;BME280;68195;50.854;2.860;2024-03-23T03:23:52;101190.47;;;6.32;100.00
78845;BME280;68195;50.854;2.860;2024-03-23T03:26:17;101194.13;;;6.25;100.00
78845;BME280;68195;50.854;2.860;2024-03-23T03:28:43;101189.59;;;6.33;100.00
78845;BME280;68195;50.854;2.860;2024-03-23T03:31:09;101137.50;;;6.07;100.00
78845;BME280;68195;50.854;2.860;2024-03-23T03:33:34;101191.09;;;6.42;100.00
78845;BME280;68195;50.854;2.860;2024-03-23T03:36:02;101104.81;;;6.01;100.00
78845;BME280;68195;50.854;2.860;2024-03-23T03:38:30;101080.75;;;5.96;100.00
78845;BME280;68195;50.854;2.860;2024-03-23T03:40:55;101181.84;;;6.66;100.00
78845;BME280;68195;50.854;2.860;2024-03-23T03:43:23;101165.75;;;6.52;100.00
78845;BME280;68195;50.854;2.860;2024-03-23T03:45:59;101190.63;;;6.61;100.00
78845;BME280;68195;50.854;2.860;2024-03-23T03:48:28;101115.22;;;6.00;100.00
78845;BME280;68195;50.854;2.860;2024-03-23T03:50:54;101187.75;;;6.37;100.00
78845;BME280;68195;50.854;2.860;2024-03-23T03:53:21;101178.94;;;6.44;100.00
78845;BME280;68195;50.854;2.860;2024-03-23T03:55:49;101153.31;;;6.32;100.00
78845;BME280;68195;50.854;2.860;2024-03-23T03:58:15;101106.38;;;6.08;100.00
78845;BME280;68195;50.854;2.860;2024-03-23T04:00:43;101114.81;;;6.16;100.00
78845;BME280;68195;50.854;2.860;2024-03-23T04:03:08;101147.97;;;6.38;100.00
78845;BME280;68195;50.854;2.860;2024-03-23T04:05:36;101116.47;;;6.19;100.00
78845;BME280;68195;50.854;2.860;2024-03-23T04:08:05;101180.44;;;6.54;100.00
78845;BME280;68195;50.854;2.860;2024-03-23T04:10:35;101169.50;;;6.42;100.00
78845;BME280;68195;50.854;2.860;2024-03-23T04:13:03;101170.59;;;6.33;100.00
78845;BME280;68195;50.854;2.860;2024-03-23T04:15:33;101141.00;;;6.06;100.00
78845;BME280;68195;50.854;2.860;2024-03-23T04:18:00;101097.47;;;5.83;100.00
78845;BME280;68195;50.854;2.860;2024-03-23T04:20:26;101170.75;;;6.27;100.00
78845;BME280;68195;50.854;2.860;2024-03-23T04:22:51;101111.91;;;5.94;100.00
78845;BME280;68195;50.854;2.860;2024-03-23T04:25:21;101164.50;;;5.98;100.00
78845;BME280;68195;50.854;2.860;2024-03-23T04:27:49;101080.97;;;5.51;100.00
78845;BME280;68195;50.854;2.860;2024-03-23T04:30:14;101117.59;;;5.71;100.00
78845;BME280;68195;50.854;2.860;2024-03-23T04:32:40;101187.75;;;6.03;100.00
78845;BME280;68195;50.854;2.860;2024-03-23T04:35:11;101065.84;;;5.32;100.00
78845;BME280;68195;50.854;2.860;2024-03-23T04:37:37;101187.56;;;6.10;100.00
78845;BME280;68195;50.854;2.860;2024-03-23T04:40:05;101113.34;;;5.70;100.00
78845;BME280;68195;50.854;2.860;2024-03-23T04:42:32;101184.81;;;6.16;100.00
78845;BME280;68195;50.854;2.860;2024-03-23T04:45:01;101082.66;;;5.52;100.00
78845;BME280;68195;50.854;2.860;2024-03-23T04:47:26;101190.16;;;6.10;100.00
78845;BME280;68195;50.854;2.860;2024-03-23T04:49:54;101184.91;;;6.13;100.00
78845;BME280;68195;50.854;2.860;2024-03-23T04:52:19;101123.34;;;5.84;100.00
78845;BME280;68195;50.854;2.860;2024-03-23T04:54:45;101195.34;;;6.10;100.00
78845;BME280;68195;50.854;2.860;2024-03-23T04:57:16;101087.84;;;5.52;100.00
78845;BME280;68195;50.854;2.860;2024-03-23T04:59:44;101118.50;;;5.70;100.00
78845;BME280;68195;50.854;2.860;2024-03-23T05:02:12;101146.81;;;5.78;100.00
78845;BME280;68195;50.854;2.860;2024-03-23T05:04:37;101182.53;;;5.65;100.00
78845;BME280;68195;50.854;2.860;2024-03-23T05:07:05;101168.84;;;5.60;100.00
78845;BME280;68195;50.854;2.860;2024-03-23T05:09:35;101149.38;;;5.42;100.00
78845;BME280;68195;50.854;2.860;2024-03-23T05:12:03;101192.75;;;5.71;100.00
78845;BME280;68195;50.854;2.860;2024-03-23T05:14:33;101186.50;;;5.82;100.00
78845;BME280;68195;50.854;2.860;2024-03-23T05:17:01;101178.13;;;5.69;100.00
78845;BME280;68195;50.854;2.860;2024-03-23T05:19:26;101165.31;;;5.63;100.00
78845;BME280;68195;50.854;2.860;2024-03-23T05:21:54;101122.59;;;5.42;100.00
78845;BME280;68195;50.854;2.860;2024-03-23T05:24:24;101126.72;;;5.50;100.00
78845;BME280;68195;50.854;2.860;2024-03-23T05:26:49;101081.72;;;5.17;100.00
78845;BME280;68195;50.854;2.860;2024-03-23T05:29:20;101169.44;;;5.71;100.00
78845;BME280;68195;50.854;2.860;2024-03-23T05:31:51;101118.22;;;5.45;100.00
78845;BME280;68195;50.854;2.860;2024-03-23T05:34:17;101201.13;;;5.83;100.00
78845;BME280;68195;50.854;2.860;2024-03-23T05:36:43;101109.78;;;5.35;100.00
78845;BME280;68195;50.854;2.860;2024-03-23T05:39:08;101141.28;;;5.56;100.00
78845;BME280;68195;50.854;2.860;2024-03-23T05:41:33;101123.53;;;5.39;100.00
78845;BME280;68195;50.854;2.860;2024-03-23T05:44:04;101099.72;;;5.23;100.00
78845;BME280;68195;50.854;2.860;2024-03-23T05:46:31;101189.13;;;5.79;100.00
78845;BME280;68195;50.854;2.860;2024-03-23T05:49:01;101075.13;;;5.04;100.00
78845;BME280;68195;50.854;2.860;2024-03-23T05:51:27;101075.13;;;5.04;100.00
78845;BME280;68195;50.854;2.860;2024-03-23T05:53:55;101113.41;;;5.28;100.00
78845;BME280;68195;50.854;2.860;2024-03-23T05:56:25;101169.63;;;5.64;100.00
78845;BME280;68195;50.854;2.860;2024-03-23T05:58:53;101173.81;;;5.69;100.00
78845;BME280;68195;50.854;2.860;2024-03-23T06:01:18;101189.22;;;5.75;100.00
78845;BME280;68195;50.854;2.860;2024-03-23T06:03:44;101129.63;;;5.37;100.00
78845;BME280;68195;50.854;2.860;2024-03-23T06:06:10;101190.97;;;5.75;100.00
78845;BME280;68195;50.854;2.860;2024-03-23T06:08:38;101065.69;;;5.01;100.00
78845;BME280;68195;50.854;2.860;2024-03-23T06:11:04;101208.03;;;5.84;100.00
78845;BME280;68195;50.854;2.860;2024-03-23T06:13:33;101118.56;;;5.30;100.00
78845;BME280;68195;50.854;2.860;2024-03-23T06:16:01;101179.19;;;5.62;100.00
78845;BME280;68195;50.854;2.860;2024-03-23T06:18:31;101187.91;;;5.56;100.00
78845;BME280;68195;50.854;2.860;2024-03-23T06:20:59;101109.38;;;5.15;100.00
78845;BME280;68195;50.854;2.860;2024-03-23T06:23:25;101215.25;;;5.69;100.00
78845;BME280;68195;50.854;2.860;2024-03-23T06:25:50;101154.69;;;5.36;100.00
78845;BME280;68195;50.854;2.860;2024-03-23T06:28:18;101186.22;;;5.55;100.00
78845;BME280;68195;50.854;2.860;2024-03-23T06:30:46;101128.25;;;5.20;100.00
78845;BME280;68195;50.854;2.860;2024-03-23T06:33:14;101083.03;;;4.96;100.00
78845;BME280;68195;50.854;2.860;2024-03-23T06:35:42;101174.53;;;5.35;100.00
78845;BME280;68195;50.854;2.860;2024-03-23T06:38:10;101157.63;;;5.19;100.00
78845;BME280;68195;50.854;2.860;2024-03-23T06:40:37;101197.91;;;5.32;100.00
78845;BME280;68195;50.854;2.860;2024-03-23T06:43:06;101225.22;;;5.49;100.00
78845;BME280;68195;50.854;2.860;2024-03-23T06:45:31;101220.56;;;5.63;100.00
78845;BME280;68195;50.854;2.860;2024-03-23T06:47:56;101189.28;;;5.33;100.00
78845;BME280;68195;50.854;2.860;2024-03-23T06:50:25;101137.13;;;5.10;100.00
78845;BME280;68195;50.854;2.860;2024-03-23T06:52:50;101177.91;;;5.39;100.00
78845;BME280;68195;50.854;2.860;2024-03-23T06:55:20;101135.47;;;5.06;100.00
78845;BME280;68195;50.854;2.860;2024-03-23T06:57:46;101229.78;;;5.76;100.00
78845;BME280;68195;50.854;2.860;2024-03-23T07:00:15;101183.06;;;5.41;100.00
78845;BME280;68195;50.854;2.860;2024-03-23T07:02:41;101232.34;;;5.78;100.00
78845;BME280;68195;50.854;2.860;2024-03-23T07:05:06;101199.72;;;5.69;100.00
78845;BME280;68195;50.854;2.860;2024-03-23T07:07:34;101230.34;;;5.91;100.00
78845;BME280;68195;50.854;2.860;2024-03-23T07:10:02;101230.97;;;6.02;100.00
78845;BME280;68195;50.854;2.860;2024-03-23T07:12:30;101166.47;;;5.51;100.00
78845;BME280;68195;50.854;2.860;2024-03-23T07:14:55;101173.00;;;5.66;100.00
78845;BME280;68195;50.854;2.860;2024-03-23T07:17:28;101193.47;;;5.78;100.00
78845;BME280;68195;50.854;2.860;2024-03-23T07:19:54;101231.66;;;6.10;100.00
78845;BME280;68195;50.854;2.860;2024-03-23T07:22:19;101237.75;;;6.08;100.00
78845;BME280;68195;50.854;2.860;2024-03-23T07:24:47;101161.59;;;5.74;100.00
78845;BME280;68195;50.854;2.860;2024-03-23T07:27:12;101225.34;;;6.22;100.00
78845;BME280;68195;50.854;2.860;2024-03-23T07:29:40;101164.91;;;5.81;100.00
78845;BME280;68195;50.854;2.860;2024-03-23T07:32:10;101173.19;;;5.97;100.00
78845;BME280;68195;50.854;2.860;2024-03-23T07:34:39;101153.38;;;5.94;100.00
78845;BME280;68195;50.854;2.860;2024-03-23T07:37:07;101226.22;;;6.55;100.00
78845;BME280;68195;50.854;2.860;2024-03-23T07:39:34;101107.13;;;5.76;100.00
78845;BME280;68195;50.854;2.860;2024-03-23T07:42:02;101162.53;;;6.09;100.00
78845;BME280;68195;50.854;2.860;2024-03-23T07:44:27;101210.75;;;6.52;100.00
78845;BME280;68195;50.854;2.860;2024-03-23T07:46:55;101170.59;;;6.33;100.00
78845;BME280;68195;50.854;2.860;2024-03-23T07:49:25;101150.38;;;6.11;100.00
78845;BME280;68195;50.854;2.860;2024-03-23T07:51:53;101220.59;;;6.72;100.00
78845;BME280;68195;50.854;2.860;2024-03-23T07:54:21;101206.50;;;6.83;100.00
78845;BME280;68195;50.854;2.860;2024-03-23T07:56:49;101152.75;;;6.53;100.00
78845;BME280;68195;50.854;2.860;2024-03-23T07:59:14;101211.84;;;7.08;100.00
78845;BME280;68195;50.854;2.860;2024-03-23T08:01:44;101217.94;;;7.07;100.00
78845;BME280;68195;50.854;2.860;2024-03-23T08:04:10;101160.44;;;6.56;100.00
78845;BME280;68195;50.854;2.860;2024-03-23T08:06:35;101210.41;;;6.97;100.00
78845;BME280;68195;50.854;2.860;2024-03-23T08:09:05;101094.97;;;6.15;100.00
78845;BME280;68195;50.854;2.860;2024-03-23T08:11:31;101184.94;;;6.79;100.00
78845;BME280;68195;50.854;2.860;2024-03-23T08:14:00;101220.16;;;6.89;100.00
78845;BME280;68195;50.854;2.860;2024-03-23T08:16:31;101087.09;;;6.19;100.00
78845;BME280;68195;50.854;2.860;2024-03-23T08:18:59;101204.56;;;7.21;100.00
78845;BME280;68195;50.854;2.860;2024-03-23T08:21:24;101217.06;;;7.37;100.00
78845;BME280;68195;50.854;2.860;2024-03-23T08:23:54;101175.66;;;7.33;100.00
78845;BME280;68195;50.854;2.860;2024-03-23T08:26:22;101209.63;;;7.55;100.00
78845;BME280;68195;50.854;2.860;2024-03-23T08:28:50;101162.34;;;7.44;100.00
78845;BME280;68195;50.854;2.860;2024-03-23T08:31:20;101165.44;;;7.55;100.00
78845;BME280;68195;50.854;2.860;2024-03-23T08:33:45;101112.22;;;6.81;100.00
78845;BME280;68195;50.854;2.860;2024-03-23T08:36:13;101146.28;;;7.29;100.00
78845;BME280;68195;50.854;2.860;2024-03-23T08:38:41;101219.09;;;7.86;100.00
78845;BME280;68195;50.854;2.860;2024-03-23T08:41:13;101221.97;;;8.05;100.00
78845;BME280;68195;50.854;2.860;2024-03-23T08:43:41;101229.34;;;8.18;100.00
78845;BME280;68195;50.854;2.860;2024-03-23T08:46:07;101230.91;;;8.24;100.00
78845;BME280;68195;50.854;2.860;2024-03-23T08:48:36;101179.81;;;7.95;100.00
78845;BME280;68195;50.854;2.860;2024-03-23T08:51:06;101176.69;;;7.84;100.00
78845;BME280;68195;50.854;2.860;2024-03-23T08:53:32;101228.03;;;8.05;100.00
78845;BME280;68195;50.854;2.860;2024-03-23T08:55:58;101221.03;;;8.07;100.00
78845;BME280;68195;50.854;2.860;2024-03-23T08:58:27;101227.66;;;7.89;100.00
78845;BME280;68195;50.854;2.860;2024-03-23T09:00:56;101224.84;;;7.97;100.00
78845;BME280;68195;50.854;2.860;2024-03-23T09:03:25;101187.19;;;7.80;100.00
78845;BME280;68195;50.854;2.860;2024-03-23T09:05:51;101187.47;;;7.99;100.00
78845;BME280;68195;50.854;2.860;2024-03-23T09:08:20;101222.84;;;8.58;100.00
78845;BME280;68195;50.854;2.860;2024-03-23T09:10:47;101229.94;;;8.80;100.00
78845;BME280;68195;50.854;2.860;2024-03-23T09:13:13;101231.03;;;8.48;99.20
78845;BME280;68195;50.854;2.860;2024-03-23T09:15:47;101195.78;;;8.11;97.55
78845;BME280;68195;50.854;2.860;2024-03-23T09:18:20;101174.56;;;8.23;98.95
78845;BME280;68195;50.854;2.860;2024-03-23T09:20:47;101224.34;;;8.66;100.00
78845;BME280;68195;50.854;2.860;2024-03-23T09:23:15;101120.50;;;8.58;100.00
78845;BME280;68195;50.854;2.860;2024-03-23T09:25:43;101173.16;;;9.13;96.19
78845;BME280;68195;50.854;2.860;2024-03-23T09:28:15;101124.31;;;8.48;92.84
78845;BME280;68195;50.854;2.860;2024-03-23T09:30:43;101215.09;;;8.82;96.67
78845;BME280;68195;50.854;2.860;2024-03-23T09:33:09;101216.25;;;8.98;93.32
78845;BME280;68195;50.854;2.860;2024-03-23T09:35:44;101210.13;;;9.48;97.13
78845;BME280;68195;50.854;2.860;2024-03-23T09:38:10;101187.50;;;9.25;92.74
78845;BME280;68195;50.854;2.860;2024-03-23T09:40:42;101215.94;;;9.31;91.96
78845;BME280;68195;50.854;2.860;2024-03-23T09:43:11;101165.34;;;8.90;97.00
78845;BME280;68195;50.854;2.860;2024-03-23T09:45:39;101178.59;;;8.58;94.61
78845;BME280;68195;50.854;2.860;2024-03-23T09:48:11;101149.69;;;8.41;96.22
78845;BME280;68195;50.854;2.860;2024-03-23T09:50:41;101189.91;;;8.82;94.13
78845;BME280;68195;50.854;2.860;2024-03-23T09:53:10;101199.22;;;9.13;94.70
78845;BME280;68195;50.854;2.860;2024-03-23T09:55:40;101195.63;;;9.39;94.59
78845;BME280;68195;50.854;2.860;2024-03-23T09:58:08;101060.78;;;8.53;95.25
78845;BME280;68195;50.854;2.860;2024-03-23T10:00:43;101185.97;;;8.96;90.41
78845;BME280;68195;50.854;2.860;2024-03-23T10:03:13;101144.50;;;8.90;91.73
78845;BME280;68195;50.854;2.860;2024-03-23T10:05:38;101180.13;;;8.89;91.49
78845;BME280;68195;50.854;2.860;2024-03-23T10:08:32;101164.63;;;8.86;94.36
78845;BME280;68195;50.854;2.860;2024-03-23T10:11:13;101115.00;;;8.66;93.45
78845;BME280;68195;50.854;2.860;2024-03-23T10:13:41;101174.56;;;9.22;94.23
78845;BME280;68195;50.854;2.860;2024-03-23T10:16:07;101135.56;;;8.97;94.93
78845;BME280;68195;50.854;2.860;2024-03-23T10:18:39;101182.06;;;9.55;95.95
78845;BME280;68195;50.854;2.860;2024-03-23T10:21:11;101092.75;;;9.26;91.44
78845;BME280;68195;50.854;2.860;2024-03-23T10:23:40;101121.94;;;9.36;91.02
78845;BME280;68195;50.854;2.860;2024-03-23T10:26:21;101179.97;;;9.63;92.67
78845;BME280;68195;50.854;2.860;2024-03-23T10:29:01;101073.81;;;8.53;86.70
78845;BME280;68195;50.854;2.860;2024-03-23T10:31:33;101107.47;;;8.58;87.34
78845;BME280;68195;50.854;2.860;2024-03-23T10:34:05;101178.59;;;8.83;86.54
78845;BME280;68195;50.854;2.860;2024-03-23T10:36:33;101163.56;;;8.67;90.21
78845;BME280;68195;50.854;2.860;2024-03-23T10:39:01;101133.84;;;8.72;91.89
78845;BME280;68195;50.854;2.860;2024-03-23T10:41:31;101156.69;;;8.89;90.82
78845;BME280;68195;50.854;2.860;2024-03-23T10:44:01;101098.81;;;8.57;93.17
78845;BME280;68195;50.854;2.860;2024-03-23T10:46:27;101141.38;;;8.80;91.26
78845;BME280;68195;50.854;2.860;2024-03-23T10:48:57;101112.31;;;8.92;91.93
78845;BME280;68195;50.854;2.860;2024-03-23T10:51:27;101125.72;;;8.81;88.08
78845;BME280;68195;50.854;2.860;2024-03-23T10:53:53;101114.44;;;8.57;87.37
78845;BME280;68195;50.854;2.860;2024-03-23T10:56:21;101092.63;;;8.35;89.51
78845;BME280;68195;50.854;2.860;2024-03-23T10:58:48;101091.44;;;8.45;92.92
78845;BME280;68195;50.854;2.860;2024-03-23T11:01:15;101079.31;;;8.44;92.48
78845;BME280;68195;50.854;2.860;2024-03-23T11:03:47;101145.69;;;9.04;90.96
78845;BME280;68195;50.854;2.860;2024-03-23T11:06:38;101153.69;;;9.23;93.85
78845;BME280;68195;50.854;2.860;2024-03-23T11:17:21;101070.94;;;8.83;86.10
78845;BME280;68195;50.854;2.860;2024-03-23T11:19:59;101132.59;;;9.30;85.77
78845;BME280;68195;50.854;2.860;2024-03-23T11:27:38;101055.31;;;8.83;86.40
78845;BME280;68195;50.854;2.860;2024-03-23T11:30:20;101081.09;;;8.91;85.84
78845;BME280;68195;50.854;2.860;2024-03-23T11:32:48;101045.88;;;8.80;86.35
78845;BME280;68195;50.854;2.860;2024-03-23T11:35:39;101109.44;;;9.22;84.94
78845;BME280;68195;50.854;2.860;2024-03-23T11:40:44;101047.22;;;8.91;88.88
78845;BME280;68195;50.854;2.860;2024-03-23T11:43:18;101106.44;;;9.09;85.42
78845;BME280;68195;50.854;2.860;2024-03-23T11:45:50;101004.78;;;8.65;89.10
78845;BME280;68195;50.854;2.860;2024-03-23T11:48:22;101092.94;;;9.21;89.63
78845;BME280;68195;50.854;2.860;2024-03-23T11:50:49;100947.50;;;8.18;85.93
78845;BME280;68195;50.854;2.860;2024-03-23T11:53:22;101091.97;;;8.78;87.23
78845;BME280;68195;50.854;2.860;2024-03-23T11:58:15;101008.97;;;7.97;90.81
78845;BME280;68195;50.854;2.860;2024-03-23T12:00:42;100987.47;;;7.92;92.72
78845;BME280;68195;50.854;2.860;2024-03-23T12:03:07;101080.13;;;8.70;93.86
78845;BME280;68195;50.854;2.860;2024-03-23T12:05:36;100997.13;;;8.37;94.80
78845;BME280;68195;50.854;2.860;2024-03-23T12:10:54;101064.06;;;8.82;85.58
78845;BME280;68195;50.854;2.860;2024-03-23T12:13:29;101067.47;;;8.84;84.98
78845;BME280;68195;50.854;2.860;2024-03-23T12:15:54;101071.50;;;8.91;87.28
78845;BME280;68195;50.854;2.860;2024-03-23T12:18:23;100989.19;;;8.40;87.15
78845;BME280;68195;50.854;2.860;2024-03-23T12:20:50;100909.81;;;8.06;90.80
78845;BME280;68195;50.854;2.860;2024-03-23T12:23:15;101068.13;;;8.89;89.52
78845;BME280;68195;50.854;2.860;2024-03-23T12:25:45;101022.44;;;8.57;89.13
78845;BME280;68195;50.854;2.860;2024-03-23T12:28:18;100921.66;;;7.90;91.04
78845;BME280;68195;50.854;2.860;2024-03-23T12:30:46;101011.31;;;8.28;89.62
78845;BME280;68195;50.854;2.860;2024-03-23T12:33:16;101016.84;;;8.44;88.08
78845;BME280;68195;50.854;2.860;2024-03-23T12:35:41;101021.47;;;8.59;86.57
78845;BME280;68195;50.854;2.860;2024-03-23T12:38:09;100842.38;;;7.78;87.28
78845;BME280;68195;50.854;2.860;2024-03-23T12:40:36;100910.38;;;8.14;85.22
78845;BME280;68195;50.854;2.860;2024-03-23T12:43:02;100927.66;;;8.40;85.14
78845;BME280;68195;50.854;2.860;2024-03-23T12:45:32;101033.78;;;9.23;88.79
78845;BME280;68195;50.854;2.860;2024-03-23T12:47:57;101020.34;;;9.12;81.58
78845;BME280;68195;50.854;2.860;2024-03-23T12:50:22;101048.63;;;9.43;84.24
78845;BME280;68195;50.854;2.860;2024-03-23T12:52:48;101011.28;;;9.22;81.81
78845;BME280;68195;50.854;2.860;2024-03-23T12:55:13;100956.69;;;8.97;84.62
78845;BME280;68195;50.854;2.860;2024-03-23T12:57:41;101007.34;;;9.33;84.99
78845;BME280;68195;50.854;2.860;2024-03-23T13:00:07;100967.69;;;9.04;81.04
78845;BME280;68195;50.854;2.860;2024-03-23T13:02:39;100920.28;;;8.74;82.22
78845;BME280;68195;50.854;2.860;2024-03-23T13:05:05;100981.69;;;9.23;83.83
78845;BME280;68195;50.854;2.860;2024-03-23T13:07:31;100935.78;;;8.99;84.81
78845;BME280;68195;50.854;2.860;2024-03-23T13:09:56;101022.94;;;9.34;84.76
78845;BME280;68195;50.854;2.860;2024-03-23T13:12:24;100966.81;;;9.05;84.45
78845;BME280;68195;50.854;2.860;2024-03-23T13:14:49;100935.84;;;8.97;86.34
78845;BME280;68195;50.854;2.860;2024-03-23T13:17:15;100925.00;;;8.86;86.90
78845;BME280;68195;50.854;2.860;2024-03-23T13:19:40;100873.66;;;8.68;86.53
78845;BME280;68195;50.854;2.860;2024-03-23T13:22:08;100886.03;;;8.83;87.61
78845;BME280;68195;50.854;2.860;2024-03-23T13:24:39;100996.41;;;9.67;84.89
78845;BME280;68195;50.854;2.860;2024-03-23T13:27:06;101005.69;;;9.74;86.55
78845;BME280;68195;50.854;2.860;2024-03-23T13:29:33;100995.09;;;9.77;87.37
78845;BME280;68195;50.854;2.860;2024-03-23T13:32:03;100959.84;;;9.48;86.80
78845;BME280;68195;50.854;2.860;2024-03-23T13:34:28;100933.03;;;9.44;88.12
78845;BME280;68195;50.854;2.860;2024-03-23T15:46:46;100777.06;;;9.73;81.21
78845;BME280;68195;50.854;2.860;2024-03-23T15:49:14;100738.72;;;9.56;82.22
78845;BME280;68195;50.854;2.860;2024-03-23T15:51:44;100784.06;;;9.73;80.43
78845;BME280;68195;50.854;2.860;2024-03-23T15:54:56;100831.47;;;10.00;80.03
78845;BME280;68195;50.854;2.860;2024-03-23T15:57:23;100780.03;;;9.65;83.03
78845;BME280;68195;50.854;2.860;2024-03-23T15:59:49;100792.00;;;9.70;83.60
78845;BME280;68195;50.854;2.860;2024-03-23T16:02:17;100805.09;;;9.49;83.64
78845;BME280;68195;50.854;2.860;2024-03-23T16:04:45;100733.19;;;9.06;85.35
78845;BME280;68195;50.854;2.860;2024-03-23T16:07:12;100763.31;;;9.32;85.52
78845;BME280;68195;50.854;2.860;2024-03-23T16:09:38;100808.78;;;9.64;86.56
78845;BME280;68195;50.854;2.860;2024-03-23T16:12:04;100736.38;;;9.12;86.21
78845;BME280;68195;50.854;2.860;2024-03-23T16:14:29;100819.44;;;9.59;85.76
78845;BME280;68195;50.854;2.860;2024-03-23T16:16:54;100800.72;;;9.50;87.52
78845;BME280;68195;50.854;2.860;2024-03-23T16:19:22;100743.47;;;9.09;90.87
78845;BME280;68195;50.854;2.860;2024-03-23T16:21:52;100782.75;;;9.24;93.51
78845;BME280;68195;50.854;2.860;2024-03-23T16:24:20;100801.56;;;9.31;96.09